Terminal Aerodrome Forecast
Issued by NWS

Home | Current Version | Previous Version | Text Only | Print | Product List | Glossary On
Versions: 1 2 3 4 5 6 7 8 9 10 11 12 13 14 15 16 17 18 19 20
000
FTUS44 KLIX 011700
TAFHUM
TAF
KHUM 011720Z 0118/0218 12006KT P6SM VCTS BKN100CB
     FM012100 15011KT P6SM VCTS BKN035CB
     FM020200 14007KT P6SM BKN050
     FM020900 VRB03KT P6SM BKN110
     FM021500 15006KT P6SM VCTS BKN070CB=

USA.gov is the U.S. government's official web portal to all federal, state and local government web resources and services.